createdAt,value
2022-10-19T00:00:48.731Z,15.03
2022-10-19T00:03:19.465Z,14.98
2022-10-19T00:05:49.788Z,15.16
2022-10-19T00:08:17.129Z,15.16
2022-10-19T00:10:44.512Z,15.07
2022-10-19T00:13:11.822Z,14.73
2022-10-19T00:15:40.481Z,14.72
2022-10-19T00:18:08.415Z,14.65
2022-10-19T00:20:36.382Z,14.55
2022-10-19T00:23:03.928Z,14.67
2022-10-19T00:25:31.352Z,14.69
2022-10-19T00:27:58.798Z,14.79
2022-10-19T00:30:26.102Z,14.73
2022-10-19T00:32:53.365Z,14.82
2022-10-19T00:35:20.610Z,14.75
2022-10-19T00:37:47.800Z,14.59
2022-10-19T00:40:15.224Z,14.52
2022-10-19T00:42:42.601Z,14.55
2022-10-19T00:45:16.896Z,14.69
2022-10-19T00:47:44.276Z,14.73
2022-10-19T00:50:11.698Z,14.86
2022-10-19T00:52:39.031Z,14.83
2022-10-19T00:55:07.156Z,15.03
2022-10-19T00:57:34.448Z,15.14
2022-10-19T01:00:01.811Z,15.20
2022-10-19T01:02:29.037Z,15.26
2022-10-19T01:04:56.409Z,15.23
2022-10-19T01:07:23.718Z,15.26
2022-10-19T01:09:51.162Z,15.41
2022-10-19T01:12:42.274Z,15.41
2022-10-19T01:15:23.797Z,15.47
2022-10-19T01:18:03.286Z,15.55
2022-10-19T01:20:58.592Z,15.53
2022-10-19T01:24:08.301Z,15.65
2022-10-19T01:27:13.275Z,15.68
2022-10-19T01:30:11.295Z,15.62
2022-10-19T01:33:00.057Z,15.71
2022-10-19T01:35:38.871Z,15.67
2022-10-19T01:38:22.300Z,15.68
2022-10-19T01:41:09.370Z,15.74
2022-10-19T01:43:45.788Z,15.69
2022-10-19T01:46:27.939Z,15.69
2022-10-19T01:48:58.823Z,15.75
2022-10-19T01:51:29.347Z,15.72
2022-10-19T01:53:58.311Z,15.75
2022-10-19T01:56:26.629Z,15.69
2022-10-19T01:58:55.186Z,15.72
2022-10-19T02:01:22.592Z,15.85
2022-10-19T02:03:50.154Z,15.88
2022-10-19T02:06:18.496Z,15.92
2022-10-19T02:08:50.074Z,15.92
2022-10-19T02:11:18.475Z,15.98
2022-10-19T02:13:46.424Z,16.04
2022-10-19T02:16:20.128Z,16.13
2022-10-19T02:18:49.044Z,16.13
2022-10-19T02:21:16.288Z,16.06
2022-10-19T02:23:44.416Z,16.16
2022-10-19T02:26:11.590Z,16.25
2022-10-19T02:28:38.853Z,16.19
2022-10-19T02:31:06.058Z,16.08
2022-10-19T02:33:33.303Z,16.09
2022-10-19T02:36:00.616Z,16.04
2022-10-19T02:38:27.926Z,16.05
2022-10-19T02:41:08.789Z,15.92
2022-10-19T02:43:37.756Z,15.92
2022-10-19T02:46:11.958Z,15.84
2022-10-19T02:48:39.332Z,15.88
2022-10-19T02:51:06.594Z,15.82
2022-10-19T02:53:33.836Z,15.79
2022-10-19T02:56:01.209Z,15.81
2022-10-19T02:58:28.523Z,15.72
2022-10-19T03:00:55.853Z,15.75
2022-10-19T03:03:23.115Z,15.72
2022-10-19T03:05:50.327Z,15.69
2022-10-19T03:08:17.995Z,15.71
2022-10-19T03:10:45.584Z,15.69
2022-10-19T03:13:13.238Z,15.69
2022-10-19T03:15:40.641Z,15.61
2022-10-19T03:18:08.166Z,15.65
2022-10-19T03:20:36.232Z,15.62
2022-10-19T03:23:03.966Z,15.54
2022-10-19T03:25:31.407Z,15.54
2022-10-19T03:27:59.513Z,15.48
2022-10-19T03:30:27.064Z,15.47
2022-10-19T03:32:54.402Z,15.40
2022-10-19T03:35:21.710Z,15.37
2022-10-19T03:37:49.053Z,15.36
2022-10-19T03:40:16.273Z,15.26
2022-10-19T03:42:43.564Z,15.20
2022-10-19T03:45:11.011Z,15.24
2022-10-19T03:47:38.261Z,15.23
2022-10-19T03:50:06.233Z,15.19
2022-10-19T03:52:33.532Z,15.24
2022-10-19T03:55:00.739Z,15.27
2022-10-19T03:57:28.054Z,15.27
2022-10-19T03:59:55.310Z,15.20
2022-10-19T04:02:22.591Z,15.19
2022-10-19T04:04:50.066Z,15.04
2022-10-19T04:07:17.499Z,14.95
2022-10-19T04:09:44.750Z,14.98
2022-10-19T04:12:12.086Z,15.03
2022-10-19T04:14:55.878Z,14.98
2022-10-19T04:17:24.826Z,15.03
2022-10-19T04:19:52.152Z,14.90
2022-10-19T04:22:19.601Z,14.93
2022-10-19T04:24:46.813Z,14.92
2022-10-19T04:27:14.206Z,14.96
2022-10-19T04:29:41.623Z,14.86
2022-10-19T04:32:08.939Z,14.86
2022-10-19T04:34:39.196Z,15.00
2022-10-19T04:37:07.407Z,14.86
2022-10-19T04:39:34.707Z,14.96
2022-10-19T04:42:02.082Z,14.88
2022-10-19T04:44:29.344Z,14.85
2022-10-19T04:46:56.679Z,14.80
2022-10-19T04:49:24.205Z,14.76
2022-10-19T04:52:01.748Z,14.86
2022-10-19T04:54:29.201Z,14.80
2022-10-19T04:56:56.979Z,14.86
2022-10-19T04:59:25.425Z,14.80
2022-10-19T05:01:53.089Z,14.76
2022-10-19T05:04:22.494Z,14.73
2022-10-19T05:06:52.362Z,14.89
2022-10-19T05:09:20.858Z,14.86
2022-10-19T05:11:52.631Z,14.83
2022-10-19T05:14:20.587Z,14.68
2022-10-19T05:16:48.096Z,14.54
2022-10-19T05:19:16.616Z,14.51
2022-10-19T05:21:45.013Z,14.49
2022-10-19T05:24:13.767Z,14.46
2022-10-19T05:26:41.669Z,14.59
2022-10-19T05:29:13.033Z,14.58
2022-10-19T05:31:43.979Z,14.58
2022-10-19T05:34:12.223Z,14.65
2022-10-19T05:36:40.613Z,14.57
2022-10-19T05:39:25.011Z,14.54
2022-10-19T05:41:53.860Z,14.52
2022-10-19T05:44:22.256Z,14.54
2022-10-19T05:46:50.754Z,14.57
2022-10-19T05:49:20.088Z,14.69
2022-10-19T05:51:48.391Z,14.72
2022-10-19T05:54:17.274Z,14.57
2022-10-19T05:56:45.668Z,14.51
2022-10-19T05:59:19.971Z,14.54
2022-10-19T06:01:47.913Z,14.49
2022-10-19T06:06:52.219Z,14.57
2022-10-19T06:09:23.676Z,14.54
2022-10-19T06:11:51.510Z,14.58
2022-10-19T06:14:19.769Z,14.69
2022-10-19T06:16:54.023Z,14.72
2022-10-19T06:19:21.879Z,14.90
2022-10-19T06:21:49.568Z,14.78
2022-10-19T06:24:17.532Z,14.82
2022-10-19T06:26:44.982Z,14.83
2022-10-19T06:29:14.815Z,15.09
2022-10-19T06:31:42.156Z,15.23
2022-10-19T06:34:09.839Z,15.19
2022-10-19T06:36:37.158Z,15.19
2022-10-19T06:39:04.917Z,15.14
2022-10-19T06:41:32.695Z,15.17
2022-10-19T06:44:16.956Z,15.23
2022-10-19T06:46:45.105Z,15.29
2022-10-19T06:49:13.465Z,15.26
2022-10-19T06:51:43.183Z,15.33
2022-10-19T06:54:10.639Z,15.30
2022-10-19T06:56:38.712Z,15.31
2022-10-19T06:59:08.471Z,15.41
2022-10-19T07:01:39.176Z,15.54
2022-10-19T07:04:06.588Z,15.61
2022-10-19T07:06:34.193Z,15.58
2022-10-19T07:09:03.537Z,15.62
2022-10-19T07:14:40.137Z,15.95
2022-10-19T07:17:09.748Z,16.49
2022-10-19T07:19:38.045Z,18.21
2022-10-19T07:22:08.699Z,19.35
2022-10-19T07:24:37.157Z,19.79
2022-10-19T07:27:05.046Z,19.99
2022-10-19T07:29:32.736Z,20.39
2022-10-19T07:32:00.016Z,20.41
2022-10-19T07:34:29.162Z,20.60
2022-10-19T07:36:56.724Z,20.83
2022-10-19T07:39:24.666Z,20.80
2022-10-19T07:41:53.451Z,21.41
2022-10-19T07:44:20.941Z,21.93
2022-10-19T07:46:49.408Z,21.42
2022-10-19T07:49:20.233Z,21.39
2022-10-19T07:51:47.889Z,21.70
2022-10-19T07:54:15.360Z,22.45
2022-10-19T07:56:45.343Z,22.37
2022-10-19T07:59:18.026Z,22.13
2022-10-19T08:01:46.163Z,21.53
2022-10-19T08:07:01.674Z,18.34
2022-10-19T08:09:51.579Z,18.17
2022-10-19T08:12:28.573Z,18.20
2022-10-19T08:14:56.351Z,17.83
2022-10-19T08:17:38.536Z,17.86
2022-10-19T08:20:07.045Z,17.77
2022-10-19T08:22:34.983Z,17.86
2022-10-19T08:25:02.659Z,17.72
2022-10-19T08:27:30.723Z,17.76
2022-10-19T08:29:58.792Z,17.84
2022-10-19T08:32:26.506Z,17.70
2022-10-19T08:34:54.166Z,17.94
2022-10-19T08:37:39.959Z,17.90
2022-10-19T08:40:26.214Z,18.03
2022-10-19T08:43:00.761Z,17.93
2022-10-19T08:45:49.267Z,18.10
2022-10-19T08:48:27.526Z,18.32
2022-10-19T08:50:57.285Z,18.25
2022-10-19T08:53:50.359Z,18.40
2022-10-19T08:56:50.077Z,18.52
2022-10-19T08:59:39.994Z,18.47
2022-10-19T09:02:30.987Z,18.34
2022-10-19T09:05:06.251Z,18.23
2022-10-19T09:07:37.806Z,18.37
2022-10-19T09:10:15.031Z,18.76
2022-10-19T09:12:45.485Z,18.96
2022-10-19T09:15:15.604Z,18.59
2022-10-19T09:17:43.037Z,18.66
2022-10-19T09:20:44.049Z,18.58
2022-10-19T09:23:28.456Z,18.77
2022-10-19T09:25:57.312Z,19.10
2022-10-19T09:28:46.297Z,19.53
2022-10-19T09:31:20.895Z,19.54
2022-10-19T09:33:56.064Z,18.89
2022-10-19T09:36:39.252Z,18.56
2022-10-19T09:39:15.846Z,18.63
2022-10-19T09:41:57.474Z,18.14
2022-10-19T09:44:25.636Z,17.82
2022-10-19T09:47:16.618Z,17.89
2022-10-19T09:49:47.374Z,18.21
2022-10-19T09:52:38.373Z,17.90
2022-10-19T09:55:22.874Z,18.35
2022-10-19T09:58:01.541Z,19.07
2022-10-19T10:00:52.399Z,19.40
2022-10-19T10:03:41.435Z,19.64
2022-10-19T10:06:19.006Z,19.41
2022-10-19T10:08:58.974Z,19.65
2022-10-19T10:11:35.030Z,19.89
2022-10-19T10:14:11.260Z,19.44
2022-10-19T10:16:40.316Z,19.20
2022-10-19T10:19:10.740Z,19.27
2022-10-19T10:21:50.414Z,19.20
2022-10-19T10:24:19.874Z,19.14
2022-10-19T10:26:49.133Z,19.16
2022-10-19T10:29:23.474Z,19.46
2022-10-19T10:31:57.281Z,19.95
2022-10-19T10:34:51.249Z,20.16
2022-10-19T10:37:22.994Z,20.74
2022-10-19T10:39:55.811Z,20.68
2022-10-19T10:42:37.621Z,20.04
2022-10-19T10:45:06.090Z,19.46
2022-10-19T10:47:34.286Z,19.33
2022-10-19T10:50:06.588Z,19.75
2022-10-19T10:52:36.310Z,19.61
2022-10-19T10:55:10.648Z,19.38
2022-10-19T10:57:40.895Z,19.38
2022-10-19T11:00:19.270Z,19.23
2022-10-19T11:02:59.022Z,19.23
2022-10-19T11:05:35.193Z,19.07
2022-10-19T11:08:23.690Z,18.96
2022-10-19T11:11:21.788Z,18.93
2022-10-19T11:14:01.547Z,19.10
2022-10-19T11:16:39.057Z,19.37
2022-10-19T11:19:29.795Z,19.68
2022-10-19T11:22:22.350Z,19.64
2022-10-19T11:25:14.076Z,19.93
2022-10-19T11:28:16.358Z,19.78
2022-10-19T11:31:09.009Z,19.75
2022-10-19T11:33:56.017Z,19.92
2022-10-19T11:36:32.903Z,19.75
2022-10-19T11:39:19.332Z,19.37
2022-10-19T11:42:23.167Z,19.30
2022-10-19T11:44:54.516Z,19.09
2022-10-19T11:47:34.478Z,18.98
2022-10-19T11:50:14.585Z,19.16
2022-10-19T11:52:51.784Z,19.47
2022-10-19T11:55:24.007Z,19.35
2022-10-19T11:57:59.132Z,19.50
2022-10-19T12:00:38.573Z,19.40
2022-10-19T12:03:10.152Z,19.64
2022-10-19T12:06:09.696Z,19.44
2022-10-19T12:08:48.271Z,19.54
2022-10-19T12:11:45.650Z,19.47
2022-10-19T12:14:16.553Z,19.91
2022-10-19T12:16:52.316Z,19.83
2022-10-19T12:19:28.335Z,19.81
2022-10-19T12:22:00.746Z,19.88
2022-10-19T12:24:29.446Z,19.71
2022-10-19T12:26:57.247Z,19.48
2022-10-19T12:29:27.449Z,19.51
2022-10-19T12:31:56.374Z,19.40
2022-10-19T12:34:42.099Z,19.34
2022-10-19T12:37:19.635Z,19.14
2022-10-19T12:40:06.934Z,19.04
2022-10-19T12:42:54.249Z,19.00
2022-10-19T12:45:31.553Z,19.07
2022-10-19T12:48:08.233Z,19.17
2022-10-19T12:50:54.003Z,19.20
2022-10-19T12:56:10.414Z,19.04
2022-10-19T12:58:47.691Z,19.19
2022-10-19T13:01:22.844Z,19.23
2022-10-19T13:03:54.300Z,19.31
2022-10-19T13:06:24.824Z,19.38
2022-10-19T13:09:06.736Z,19.34
2022-10-19T13:11:38.578Z,19.27
2022-10-19T13:14:09.002Z,19.26
2022-10-19T13:16:36.412Z,19.27
2022-10-19T13:19:13.823Z,19.24
2022-10-19T13:21:47.365Z,19.26
2022-10-19T13:24:26.491Z,19.30
2022-10-19T13:27:00.182Z,19.30
2022-10-19T13:29:29.044Z,19.17
2022-10-19T13:31:56.362Z,19.33
2022-10-19T13:34:24.324Z,19.07
2022-10-19T13:37:01.172Z,19.06
2022-10-19T13:39:28.483Z,19.13
2022-10-19T13:41:57.246Z,19.16
2022-10-19T13:44:26.385Z,19.10
2022-10-19T13:47:12.621Z,18.99
2022-10-19T13:49:41.612Z,18.81
2022-10-19T13:52:15.044Z,18.68
2022-10-19T13:55:08.776Z,18.48
2022-10-19T13:57:55.328Z,18.53
2022-10-19T14:00:26.144Z,18.51
2022-10-19T14:03:19.447Z,18.51
2022-10-19T14:06:22.278Z,18.61
2022-10-19T14:08:58.607Z,18.62
2022-10-19T14:11:34.196Z,18.55
2022-10-19T14:14:10.760Z,18.58
2022-10-19T14:17:14.805Z,18.63
2022-10-19T14:19:51.503Z,18.71
2022-10-19T14:22:29.982Z,18.77
2022-10-19T14:25:04.894Z,18.71
2022-10-19T14:27:33.105Z,18.65
2022-10-19T14:30:00.728Z,18.61
2022-10-19T14:32:29.150Z,18.68
2022-10-19T14:35:01.440Z,18.63
2022-10-19T14:37:29.101Z,18.53
2022-10-19T14:40:26.538Z,18.58
2022-10-19T14:42:57.175Z,18.41
2022-10-19T14:45:31.600Z,18.30
2022-10-19T14:48:04.124Z,18.21
2022-10-19T14:50:42.511Z,18.30
2022-10-19T14:53:56.914Z,18.31
2022-10-19T14:56:29.260Z,18.15
2022-10-19T14:59:05.492Z,18.28
2022-10-19T15:01:33.702Z,18.38
2022-10-19T15:04:01.544Z,18.40
2022-10-19T15:06:32.917Z,18.44
2022-10-19T15:09:05.144Z,18.42
2022-10-19T15:11:41.929Z,18.37
2022-10-19T15:14:12.142Z,18.53
2022-10-19T15:16:39.489Z,18.53
2022-10-19T15:19:11.417Z,18.55
2022-10-19T15:21:38.999Z,18.34
2022-10-19T15:24:15.954Z,18.27
2022-10-19T15:27:01.680Z,18.18
2022-10-19T15:29:36.014Z,18.20
2022-10-19T15:32:14.186Z,18.14
2022-10-19T15:34:41.733Z,18.00
2022-10-19T15:37:21.373Z,18.01
2022-10-19T15:39:49.172Z,17.90
2022-10-19T15:42:39.141Z,18.03
2022-10-19T15:45:30.691Z,18.07
2022-10-19T15:48:25.823Z,18.17
2022-10-19T15:50:53.399Z,18.28
2022-10-19T15:53:21.584Z,18.08
2022-10-19T15:55:49.290Z,18.03
2022-10-19T15:58:17.250Z,18.08
2022-10-19T16:00:44.597Z,18.05
2022-10-19T16:03:12.047Z,18.04
2022-10-19T16:05:39.576Z,17.94
2022-10-19T16:08:10.140Z,17.91
2022-10-19T16:10:39.819Z,17.97
2022-10-19T16:13:07.230Z,17.97
2022-10-19T16:15:34.584Z,17.89
2022-10-19T16:18:01.895Z,17.82
2022-10-19T16:20:29.853Z,17.74
2022-10-19T16:22:57.525Z,17.70
2022-10-19T16:25:24.990Z,17.46
2022-10-19T16:27:52.619Z,17.45
2022-10-19T16:30:20.070Z,17.47
2022-10-19T16:32:50.708Z,17.39
2022-10-19T16:35:18.019Z,17.47
2022-10-19T16:37:45.603Z,17.46
2022-10-19T16:40:13.193Z,17.32
2022-10-19T16:42:40.705Z,17.08
2022-10-19T16:45:09.191Z,16.87
2022-10-19T16:47:36.657Z,16.83
2022-10-19T16:50:06.274Z,16.67
2022-10-19T16:52:33.948Z,16.50
2022-10-19T16:55:01.684Z,16.43
2022-10-19T16:57:29.018Z,16.40
2022-10-19T16:59:56.469Z,16.32
2022-10-19T17:02:23.747Z,16.05
2022-10-19T17:04:51.172Z,16.05
2022-10-19T17:07:18.469Z,15.91
2022-10-19T17:09:46.696Z,15.99
2022-10-19T17:12:15.534Z,15.85
2022-10-19T17:14:43.336Z,15.77
2022-10-19T17:17:10.764Z,15.68
2022-10-19T17:19:38.232Z,15.55
2022-10-19T17:22:05.754Z,15.47
2022-10-19T17:24:33.206Z,15.43
2022-10-19T17:27:01.171Z,15.29
2022-10-19T17:29:28.626Z,15.33
2022-10-19T17:31:55.951Z,15.10
2022-10-19T17:34:23.455Z,15.11
2022-10-19T17:36:50.801Z,15.14
2022-10-19T17:39:21.415Z,15.14
2022-10-19T17:41:50.841Z,15.04
2022-10-19T17:44:18.978Z,14.90
2022-10-19T17:46:46.357Z,14.85
2022-10-19T17:49:15.056Z,14.80
2022-10-19T17:51:42.480Z,14.89
2022-10-19T17:54:11.801Z,14.78
2022-10-19T17:56:39.571Z,14.61
2022-10-19T17:59:09.178Z,14.55
2022-10-19T18:01:37.447Z,14.54
2022-10-19T18:04:04.966Z,14.59
2022-10-19T18:06:33.687Z,14.58
2022-10-19T18:09:01.926Z,14.61
2022-10-19T18:11:38.674Z,14.65
2022-10-19T18:14:07.930Z,14.61
2022-10-19T18:16:37.291Z,14.58
2022-10-19T18:19:04.701Z,14.58
2022-10-19T18:21:36.207Z,14.55
2022-10-19T18:24:03.743Z,14.54
2022-10-19T18:26:32.138Z,14.41
2022-10-19T18:29:00.679Z,14.35
2022-10-19T18:31:29.941Z,14.35
2022-10-19T18:33:58.149Z,14.18
2022-10-19T18:36:25.379Z,14.27
2022-10-19T18:38:57.226Z,14.30
2022-10-19T18:41:24.630Z,14.32
2022-10-19T18:43:54.060Z,14.22
2022-10-19T18:46:22.063Z,14.27
2022-10-19T18:48:50.001Z,14.28
2022-10-19T18:51:17.955Z,14.18
2022-10-19T18:53:45.321Z,14.10
2022-10-19T18:56:13.950Z,14.00
2022-10-19T18:58:41.499Z,14.09
2022-10-19T19:01:13.652Z,14.00
2022-10-19T19:03:44.708Z,13.82
2022-10-19T19:06:17.261Z,13.86
2022-10-19T19:08:47.404Z,13.77
2022-10-19T19:11:22.211Z,13.67
2022-10-19T19:13:50.214Z,13.67
2022-10-19T19:16:17.721Z,13.70
2022-10-19T19:18:45.099Z,13.63
2022-10-19T19:21:20.560Z,13.49
2022-10-19T19:23:48.124Z,13.59
2022-10-19T19:26:15.512Z,13.61
2022-10-19T19:28:44.220Z,13.55
2022-10-19T19:31:15.497Z,13.36
2022-10-19T19:33:44.234Z,13.34
2022-10-19T19:36:12.062Z,13.32
2022-10-19T19:38:39.607Z,13.26
2022-10-19T19:41:13.545Z,13.36
2022-10-19T19:43:41.289Z,13.36
2022-10-19T19:46:13.070Z,13.22
2022-10-19T19:48:41.914Z,13.21
2022-10-19T19:51:10.352Z,13.19
2022-10-19T19:53:38.068Z,13.08
2022-10-19T19:56:09.670Z,13.07
2022-10-19T19:58:36.998Z,12.93
2022-10-19T20:01:12.459Z,12.95
2022-10-19T20:03:41.237Z,12.90
2022-10-19T20:06:08.457Z,12.98
2022-10-19T20:08:36.979Z,12.85
2022-10-19T20:11:09.377Z,12.90
2022-10-19T20:13:36.790Z,12.87
2022-10-19T20:16:29.217Z,12.77
2022-10-19T20:19:00.670Z,12.73
2022-10-19T20:21:28.018Z,12.73
2022-10-19T20:23:55.239Z,12.77
2022-10-19T20:26:23.644Z,12.73
2022-10-19T20:28:50.913Z,12.60
2022-10-19T20:31:18.455Z,12.47
2022-10-19T20:33:47.457Z,12.56
2022-10-19T20:36:22.728Z,12.54
2022-10-19T20:38:54.686Z,12.60
2022-10-19T20:41:22.665Z,12.53
2022-10-19T20:43:50.190Z,12.37
2022-10-19T20:46:19.021Z,12.39
2022-10-19T20:48:46.393Z,12.37
2022-10-19T20:51:18.364Z,12.25
2022-10-19T20:53:46.744Z,12.43
2022-10-19T20:56:15.447Z,12.52
2022-10-19T20:58:44.013Z,12.47
2022-10-19T21:01:16.268Z,12.57
2022-10-19T21:03:52.809Z,12.60
2022-10-19T21:06:20.556Z,12.52
2022-10-19T21:08:47.878Z,12.43
2022-10-19T21:11:20.215Z,12.45
2022-10-19T21:13:47.779Z,12.42
2022-10-19T21:16:16.796Z,12.45
2022-10-19T21:18:44.689Z,12.40
2022-10-19T21:21:19.675Z,12.33
2022-10-19T21:23:47.955Z,12.36
2022-10-19T21:26:15.331Z,12.29
2022-10-19T21:28:49.653Z,12.35
2022-10-19T21:31:17.180Z,12.36
2022-10-19T21:33:44.462Z,12.46
2022-10-19T21:36:12.394Z,12.35
2022-10-19T21:38:39.729Z,12.33
2022-10-19T21:41:08.722Z,12.28
2022-10-19T21:43:35.969Z,12.29
2022-10-19T21:46:08.231Z,12.36
2022-10-19T21:48:35.577Z,12.35
2022-10-19T21:51:20.887Z,12.37
2022-10-19T21:53:48.367Z,12.32
2022-10-19T21:56:15.711Z,12.36
2022-10-19T21:58:47.201Z,12.11
2022-10-19T22:01:14.791Z,12.14
2022-10-19T22:03:42.103Z,12.08
2022-10-19T22:06:09.404Z,12.25
2022-10-19T22:08:36.798Z,12.24
2022-10-19T22:11:09.154Z,12.40
2022-10-19T22:13:36.577Z,12.42
2022-10-19T22:16:07.009Z,12.26
2022-10-19T22:18:34.568Z,12.29
2022-10-19T22:21:05.480Z,12.30
2022-10-19T22:23:32.792Z,12.30
2022-10-19T22:26:00.108Z,12.37
2022-10-19T22:28:27.665Z,12.21
2022-10-19T22:30:55.736Z,12.24
2022-10-19T22:33:23.565Z,12.19
2022-10-19T22:35:57.942Z,11.98
2022-10-19T22:38:25.545Z,11.95
2022-10-19T22:40:52.850Z,11.78
2022-10-19T22:43:20.162Z,11.78
2022-10-19T22:45:50.545Z,11.68
2022-10-19T22:48:18.214Z,11.74
2022-10-19T22:50:45.885Z,11.74
2022-10-19T22:53:13.236Z,11.70
2022-10-19T22:55:40.749Z,11.67
2022-10-19T22:58:08.414Z,11.60
2022-10-19T23:00:36.250Z,11.61
2022-10-19T23:03:03.681Z,11.56
2022-10-19T23:05:30.974Z,11.56
2022-10-19T23:07:58.308Z,11.61
2022-10-19T23:10:25.617Z,11.65
2022-10-19T23:12:53.263Z,11.56
2022-10-19T23:15:21.072Z,11.58
2022-10-19T23:17:48.427Z,11.60
2022-10-19T23:20:15.774Z,11.63
2022-10-19T23:22:43.058Z,11.73
2022-10-19T23:25:10.328Z,11.61
2022-10-19T23:27:37.933Z,11.67
2022-10-19T23:30:05.902Z,11.63
2022-10-19T23:32:33.180Z,11.58
2022-10-19T23:35:00.439Z,11.63
2022-10-19T23:37:27.776Z,11.51
2022-10-19T23:39:54.987Z,11.38
2022-10-19T23:42:22.308Z,11.33
2022-10-19T23:44:49.577Z,11.24
2022-10-19T23:47:16.884Z,11.26
2022-10-19T23:49:44.077Z,11.37
2022-10-19T23:52:11.429Z,11.43
2022-10-19T23:54:38.693Z,11.40
2022-10-19T23:57:06.097Z,11.40
2022-10-19T23:59:33.338Z,11.26
